createdAt,value
2023-12-18T00:00:23.263Z,4.80
2023-12-18T00:02:50.905Z,4.80
2023-12-18T00:05:18.682Z,4.80
2023-12-18T00:07:46.409Z,4.78
2023-12-18T00:10:14.369Z,4.75
2023-12-18T00:12:42.046Z,4.70
2023-12-18T00:15:09.849Z,4.65
2023-12-18T00:17:37.614Z,4.60
2023-12-18T00:20:05.781Z,4.55
2023-12-18T00:22:33.513Z,4.50
2023-12-18T00:25:01.172Z,4.45
2023-12-18T00:27:28.810Z,4.36
2023-12-18T00:29:56.492Z,4.29
2023-12-18T00:32:24.051Z,4.20
2023-12-18T00:34:51.802Z,4.12
2023-12-18T00:37:19.468Z,4.07
2023-12-18T00:39:47.037Z,4.02
2023-12-18T00:42:14.629Z,3.98
2023-12-18T00:44:42.260Z,3.92
2023-12-18T00:47:09.914Z,3.88
2023-12-18T00:49:37.904Z,3.86
2023-12-18T00:52:05.640Z,3.83
2023-12-18T00:54:33.236Z,3.80
2023-12-18T00:57:00.902Z,3.75
2023-12-18T00:59:28.531Z,3.71
2023-12-18T01:01:56.085Z,3.69
2023-12-18T01:04:23.684Z,3.67
2023-12-18T01:06:51.325Z,3.66
2023-12-18T01:09:19.013Z,3.68
2023-12-18T01:11:46.526Z,3.68
2023-12-18T01:14:14.094Z,3.68
2023-12-18T01:16:41.452Z,3.69
2023-12-18T01:19:09.299Z,3.72
2023-12-18T01:21:37.027Z,3.77
2023-12-18T01:24:04.777Z,3.79
2023-12-18T01:26:32.502Z,3.81
2023-12-18T01:29:00.177Z,3.82
2023-12-18T01:31:27.852Z,3.79
2023-12-18T01:33:55.699Z,3.75
2023-12-18T01:36:23.646Z,3.75
2023-12-18T01:38:51.332Z,3.76
2023-12-18T01:41:18.985Z,3.77
2023-12-18T01:43:46.529Z,3.79
2023-12-18T01:46:14.095Z,3.84
2023-12-18T01:48:41.762Z,3.89
2023-12-18T01:51:09.973Z,3.94
2023-12-18T01:53:37.596Z,3.97
2023-12-18T01:56:05.263Z,3.99
2023-12-18T01:58:32.830Z,4.01
2023-12-18T02:01:00.570Z,4.03
2023-12-18T02:03:28.320Z,4.06
2023-12-18T02:05:56.110Z,4.07
2023-12-18T02:08:23.667Z,4.05
2023-12-18T02:10:51.118Z,4.04
2023-12-18T02:13:18.672Z,4.05
2023-12-18T02:15:46.584Z,4.05
2023-12-18T02:18:14.460Z,4.06
2023-12-18T02:20:42.278Z,4.04
2023-12-18T02:23:09.831Z,4.03
2023-12-18T02:25:37.409Z,4.02
2023-12-18T02:28:05.058Z,4.02
2023-12-18T02:30:32.731Z,4.00
2023-12-18T02:33:00.463Z,3.98
2023-12-18T02:35:28.489Z,3.94
2023-12-18T02:37:56.116Z,3.88
2023-12-18T02:40:23.672Z,3.81
2023-12-18T02:42:51.365Z,3.76
2023-12-18T02:45:19.089Z,3.70
2023-12-18T02:47:46.974Z,3.66
2023-12-18T02:50:14.732Z,3.61
2023-12-18T02:52:42.389Z,3.56
2023-12-18T02:55:09.944Z,3.52
2023-12-18T02:57:37.846Z,3.46
2023-12-18T03:00:05.631Z,3.39
2023-12-18T03:02:33.345Z,3.29
2023-12-18T03:05:00.948Z,3.20
2023-12-18T03:07:28.666Z,3.09
2023-12-18T03:09:56.237Z,2.99
2023-12-18T03:12:24.056Z,2.89
2023-12-18T03:14:51.755Z,2.79
2023-12-18T03:17:19.735Z,2.69
2023-12-18T03:19:47.371Z,2.61
2023-12-18T03:22:15.151Z,2.54
2023-12-18T03:24:42.786Z,2.46
2023-12-18T03:27:10.580Z,2.41
2023-12-18T03:29:38.187Z,2.39
2023-12-18T03:32:05.792Z,2.34
2023-12-18T03:34:33.541Z,2.32
2023-12-18T03:37:01.754Z,2.32
2023-12-18T03:39:29.314Z,2.33
2023-12-18T03:41:56.845Z,2.34
2023-12-18T03:44:24.402Z,2.34
2023-12-18T03:46:51.964Z,2.34
2023-12-18T03:49:19.805Z,2.33
2023-12-18T03:51:47.529Z,2.29
2023-12-18T03:54:15.278Z,2.27
2023-12-18T03:56:42.813Z,2.23
2023-12-18T03:59:10.684Z,2.14
2023-12-18T04:01:38.294Z,2.05
2023-12-18T04:04:06.069Z,1.98
2023-12-18T04:06:33.799Z,1.92
2023-12-18T04:09:01.452Z,1.84
2023-12-18T04:11:29.022Z,1.77
2023-12-18T04:13:56.655Z,1.71
2023-12-18T04:16:24.321Z,1.65
2023-12-18T04:18:52.025Z,1.58
2023-12-18T04:21:19.875Z,1.51
2023-12-18T04:23:47.601Z,1.48
2023-12-18T04:26:15.180Z,1.52
2023-12-18T04:28:42.833Z,1.59
2023-12-18T04:31:10.411Z,1.66
2023-12-18T04:33:38.326Z,1.78
2023-12-18T04:36:06.074Z,1.92
2023-12-18T04:38:33.784Z,2.07
2023-12-18T04:41:01.335Z,2.23
2023-12-18T04:43:28.905Z,2.37
2023-12-18T04:45:56.458Z,2.51
2023-12-18T04:48:24.180Z,2.63
2023-12-18T04:50:51.778Z,2.71
2023-12-18T04:53:19.338Z,2.79
2023-12-18T04:55:46.996Z,2.87
2023-12-18T04:58:14.582Z,2.96
2023-12-18T05:00:42.315Z,3.02
2023-12-18T05:03:10.216Z,3.09
2023-12-18T05:05:38.400Z,3.13
2023-12-18T05:08:05.922Z,3.16
2023-12-18T05:10:33.490Z,3.18
2023-12-18T05:13:01.062Z,3.20
2023-12-18T05:15:28.753Z,3.22
2023-12-18T05:17:56.384Z,3.25
2023-12-18T05:20:24.038Z,3.27
2023-12-18T05:22:51.704Z,3.27
2023-12-18T05:25:19.573Z,3.26
2023-12-18T05:27:47.170Z,3.25
2023-12-18T05:30:15.073Z,3.24
2023-12-18T05:32:43.188Z,3.25
2023-12-18T05:35:11.025Z,3.25
2023-12-18T05:37:38.685Z,3.22
2023-12-18T05:40:06.338Z,3.19
2023-12-18T05:42:33.990Z,3.14
2023-12-18T05:45:01.992Z,3.14
2023-12-18T05:47:29.675Z,3.15
2023-12-18T05:49:57.351Z,3.17
2023-12-18T05:52:25.068Z,3.17
2023-12-18T05:54:52.682Z,3.16
2023-12-18T05:57:20.579Z,3.14
2023-12-18T05:59:48.252Z,3.12
2023-12-18T06:02:15.916Z,3.13
2023-12-18T06:04:43.609Z,3.16
2023-12-18T06:07:11.792Z,3.22
2023-12-18T06:09:39.652Z,3.27
2023-12-18T06:12:07.419Z,3.31
2023-12-18T06:14:35.054Z,3.34
2023-12-18T06:17:02.708Z,3.37
2023-12-18T06:19:30.374Z,3.40
2023-12-18T06:21:58.119Z,3.42
2023-12-18T06:24:25.724Z,3.43
2023-12-18T06:26:53.752Z,3.44
2023-12-18T06:29:21.108Z,3.44
2023-12-18T06:31:48.824Z,3.45
2023-12-18T06:34:16.722Z,3.44
2023-12-18T06:36:44.454Z,3.43
2023-12-18T06:39:12.269Z,3.46
2023-12-18T06:41:39.931Z,3.48
2023-12-18T06:44:07.595Z,3.47
2023-12-18T06:46:35.160Z,3.46
2023-12-18T06:49:03.184Z,3.46
2023-12-18T06:51:30.892Z,3.46
2023-12-18T06:53:58.566Z,3.46
2023-12-18T06:56:26.105Z,3.47
2023-12-18T06:58:53.870Z,3.48
2023-12-18T07:01:21.534Z,3.49
2023-12-18T07:03:49.276Z,3.52
2023-12-18T07:06:16.974Z,3.54
2023-12-18T07:08:44.744Z,3.57
2023-12-18T07:11:12.281Z,3.57
2023-12-18T07:13:39.951Z,3.58
2023-12-18T07:16:07.529Z,3.59
2023-12-18T07:18:35.379Z,3.62
2023-12-18T07:21:03.232Z,3.65
2023-12-18T07:23:30.796Z,3.66
2023-12-18T07:25:58.346Z,3.70
2023-12-18T07:28:25.911Z,3.72
2023-12-18T07:30:53.324Z,3.79
2023-12-18T07:33:21.275Z,4.47
2023-12-18T07:35:48.898Z,5.86
2023-12-18T07:38:16.558Z,7.31
2023-12-18T07:40:44.117Z,8.68
2023-12-18T07:43:11.775Z,9.85
2023-12-18T07:45:39.376Z,10.75
2023-12-18T07:48:12.635Z,11.65
2023-12-18T07:50:40.424Z,12.52
2023-12-18T07:53:08.052Z,13.21
2023-12-18T07:55:36.023Z,13.96
2023-12-18T07:58:03.691Z,14.71
2023-12-18T08:00:31.270Z,15.43
2023-12-18T08:02:59.187Z,16.01
2023-12-18T08:05:26.956Z,16.61
2023-12-18T08:07:54.845Z,17.24
2023-12-18T08:10:22.404Z,17.88
2023-12-18T08:12:50.170Z,18.42
2023-12-18T08:15:17.855Z,18.92
2023-12-18T08:17:45.741Z,19.50
2023-12-18T08:20:13.457Z,20.02
2023-12-18T08:22:41.470Z,20.46
2023-12-18T08:25:09.192Z,20.83
2023-12-18T08:27:36.876Z,21.03
2023-12-18T08:30:04.597Z,21.01
2023-12-18T08:32:32.435Z,21.15
2023-12-18T08:35:00.353Z,21.39
2023-12-18T08:37:28.011Z,21.40
2023-12-18T08:39:55.703Z,21.20
2023-12-18T08:42:23.558Z,20.76
2023-12-18T08:44:51.302Z,19.97
2023-12-18T08:47:18.976Z,19.35
2023-12-18T08:49:46.528Z,18.66
2023-12-18T08:52:14.186Z,18.35
2023-12-18T08:54:41.876Z,18.54
2023-12-18T08:57:09.934Z,18.41
2023-12-18T08:59:37.478Z,18.34
2023-12-18T09:02:05.308Z,18.23
2023-12-18T09:04:33.148Z,17.67
2023-12-18T09:07:00.799Z,17.11
2023-12-18T09:09:28.437Z,16.58
2023-12-18T09:11:55.982Z,16.16
2023-12-18T09:14:23.563Z,15.69
2023-12-18T09:16:51.520Z,15.58
2023-12-18T09:19:19.252Z,15.85
2023-12-18T09:21:47.110Z,15.99
2023-12-18T09:24:14.837Z,15.85
2023-12-18T09:26:42.469Z,15.72
2023-12-18T09:29:10.214Z,16.05
2023-12-18T09:31:37.976Z,16.00
2023-12-18T09:34:06.147Z,16.02
2023-12-18T09:36:33.895Z,15.66
2023-12-18T09:39:02.002Z,15.18
2023-12-18T09:41:29.562Z,15.72
2023-12-18T09:43:57.230Z,16.25
2023-12-18T09:46:24.892Z,15.92
2023-12-18T09:48:52.640Z,15.65
2023-12-18T09:51:20.343Z,15.21
2023-12-18T09:53:47.978Z,15.05
2023-12-18T09:56:15.642Z,15.17
2023-12-18T09:58:43.197Z,15.49
2023-12-18T10:01:10.965Z,16.21
2023-12-18T10:03:38.695Z,16.99
2023-12-18T10:06:06.500Z,17.89
2023-12-18T10:08:34.049Z,18.88
2023-12-18T10:11:01.711Z,19.18
2023-12-18T10:13:29.269Z,18.83
2023-12-18T10:15:56.989Z,18.11
2023-12-18T10:18:24.896Z,17.61
2023-12-18T10:20:53.867Z,17.36
2023-12-18T10:23:21.448Z,17.10
2023-12-18T10:25:49.124Z,17.59
2023-12-18T10:28:16.770Z,18.02
2023-12-18T10:30:44.469Z,17.87
2023-12-18T10:33:12.617Z,17.50
2023-12-18T10:35:40.477Z,17.33
2023-12-18T10:38:08.043Z,17.09
2023-12-18T10:40:35.719Z,17.02
2023-12-18T10:43:03.764Z,17.36
2023-12-18T10:45:31.524Z,18.30
2023-12-18T10:47:59.429Z,19.49
2023-12-18T10:50:27.277Z,19.97
2023-12-18T10:52:54.826Z,19.79
2023-12-18T10:55:22.547Z,19.48
2023-12-18T10:57:50.258Z,19.12
2023-12-18T11:00:18.179Z,18.70
2023-12-18T11:02:45.893Z,18.22
2023-12-18T11:05:13.824Z,17.86
2023-12-18T11:07:41.949Z,17.59
2023-12-18T11:10:11.434Z,18.02
2023-12-18T11:12:40.344Z,17.96
2023-12-18T11:15:08.050Z,17.80
2023-12-18T11:17:35.901Z,18.04
2023-12-18T11:20:03.692Z,18.38
2023-12-18T11:22:31.478Z,18.54
2023-12-18T11:24:59.334Z,18.48
2023-12-18T11:27:26.926Z,19.30
2023-12-18T11:29:54.357Z,20.87
2023-12-18T11:32:21.909Z,22.51
2023-12-18T11:34:49.734Z,23.13
2023-12-18T11:37:17.551Z,23.15
2023-12-18T11:39:45.129Z,23.02
2023-12-18T11:42:13.302Z,22.77
2023-12-18T11:44:40.966Z,22.69
2023-12-18T11:47:08.594Z,23.20
2023-12-18T11:49:36.217Z,24.12
2023-12-18T11:52:03.924Z,24.99
2023-12-18T11:54:32.861Z,25.86
2023-12-18T11:57:00.574Z,26.63
2023-12-18T11:59:28.231Z,27.62
2023-12-18T12:01:55.789Z,28.52
2023-12-18T12:04:23.810Z,29.24
2023-12-18T12:06:51.480Z,29.75
2023-12-18T12:09:19.231Z,30.17
2023-12-18T12:11:46.846Z,30.48
2023-12-18T12:14:14.517Z,30.43
2023-12-18T12:16:41.898Z,30.23
2023-12-18T12:19:09.711Z,29.73
2023-12-18T12:21:45.223Z,29.31
2023-12-18T12:24:16.976Z,29.44
2023-12-18T12:26:44.818Z,29.67
2023-12-18T12:29:12.649Z,28.53
2023-12-18T12:31:40.535Z,26.59
2023-12-18T12:34:08.357Z,24.85
2023-12-18T12:36:36.113Z,24.31
2023-12-18T12:39:03.959Z,24.58
2023-12-18T12:41:33.432Z,24.91
2023-12-18T12:44:04.937Z,25.26
2023-12-18T12:46:36.008Z,25.76
2023-12-18T12:49:04.561Z,26.16
2023-12-18T12:51:34.279Z,26.49
2023-12-18T12:54:01.999Z,25.90
2023-12-18T12:56:29.651Z,24.17
2023-12-18T12:58:57.436Z,22.36
2023-12-18T13:01:25.191Z,20.65
2023-12-18T13:03:53.200Z,19.14
2023-12-18T13:06:21.554Z,18.01
2023-12-18T13:08:49.387Z,17.06
2023-12-18T13:11:17.055Z,16.23
2023-12-18T13:13:44.721Z,15.55
2023-12-18T13:16:12.261Z,15.15
2023-12-18T13:18:40.068Z,15.80
2023-12-18T13:21:07.803Z,16.74
2023-12-18T13:23:35.667Z,17.31
2023-12-18T13:26:03.656Z,17.59
2023-12-18T13:28:31.298Z,17.56
2023-12-18T13:30:58.744Z,17.76
2023-12-18T13:33:26.677Z,18.10
2023-12-18T13:35:55.524Z,18.09
2023-12-18T13:38:23.887Z,17.59
2023-12-18T13:40:51.446Z,17.40
2023-12-18T13:43:19.106Z,17.29
2023-12-18T13:45:46.860Z,17.23
2023-12-18T13:48:14.593Z,17.08
2023-12-18T13:50:42.700Z,16.63
2023-12-18T13:53:10.166Z,16.23
2023-12-18T13:55:37.724Z,16.06
2023-12-18T13:58:05.312Z,15.82
2023-12-18T14:00:33.010Z,15.36
2023-12-18T14:03:00.632Z,14.99
2023-12-18T14:05:28.192Z,14.76
2023-12-18T14:07:55.838Z,14.59
2023-12-18T14:10:23.517Z,14.45
2023-12-18T14:12:51.651Z,14.21
2023-12-18T14:15:19.388Z,13.99
2023-12-18T14:17:47.086Z,13.76
2023-12-18T14:20:14.779Z,13.44
2023-12-18T14:22:42.609Z,13.08
2023-12-18T14:25:10.539Z,12.76
2023-12-18T14:27:38.292Z,12.43
2023-12-18T14:30:06.145Z,12.03
2023-12-18T14:32:33.992Z,11.68
2023-12-18T14:35:01.873Z,11.35
2023-12-18T14:37:29.603Z,11.01
2023-12-18T14:39:57.431Z,10.69
2023-12-18T14:42:25.260Z,10.43
2023-12-18T14:44:52.813Z,10.11
2023-12-18T14:47:20.419Z,9.84
2023-12-18T14:49:48.125Z,9.59
2023-12-18T14:52:16.297Z,9.37
2023-12-18T14:54:43.870Z,9.19
2023-12-18T14:57:11.556Z,9.04
2023-12-18T14:59:39.170Z,8.91
2023-12-18T15:02:06.900Z,8.80
2023-12-18T15:04:34.710Z,8.68
2023-12-18T15:07:02.500Z,8.55
2023-12-18T15:09:30.293Z,8.40
2023-12-18T15:11:58.086Z,8.24
2023-12-18T15:14:25.973Z,8.13
2023-12-18T15:16:53.616Z,8.08
2023-12-18T15:19:21.340Z,8.03
2023-12-18T15:21:49.178Z,7.98
2023-12-18T15:24:16.844Z,7.95
2023-12-18T15:26:44.371Z,7.94
2023-12-18T15:29:11.950Z,7.91
2023-12-18T15:31:40.174Z,7.86
2023-12-18T15:34:08.163Z,7.82
2023-12-18T15:36:37.783Z,7.76
2023-12-18T15:39:05.441Z,7.68
2023-12-18T15:41:33.013Z,7.62
2023-12-18T15:44:00.560Z,7.59
2023-12-18T15:46:28.249Z,7.57
2023-12-18T15:48:55.962Z,7.55
2023-12-18T15:51:23.870Z,7.56
2023-12-18T15:53:51.829Z,7.56
2023-12-18T15:56:19.400Z,7.55
2023-12-18T15:58:46.967Z,7.54
2023-12-18T16:01:15.029Z,7.55
2023-12-18T16:03:43.012Z,7.53
2023-12-18T16:06:10.861Z,7.49
2023-12-18T16:08:38.405Z,7.47
2023-12-18T16:11:05.962Z,7.49
2023-12-18T16:13:33.625Z,7.48
2023-12-18T16:16:01.830Z,7.50
2023-12-18T16:18:29.782Z,7.54
2023-12-18T16:20:57.222Z,7.57
2023-12-18T16:23:24.998Z,7.56
2023-12-18T16:25:52.595Z,7.55
2023-12-18T16:28:20.312Z,7.55
2023-12-18T16:30:56.039Z,7.54
2023-12-18T16:33:25.431Z,7.54
2023-12-18T16:35:53.411Z,7.53
2023-12-18T16:38:21.506Z,7.53
2023-12-18T16:40:49.162Z,7.53
2023-12-18T16:43:16.831Z,7.51
2023-12-18T16:45:44.381Z,7.48
2023-12-18T16:48:12.008Z,7.44
2023-12-18T16:50:39.818Z,7.40
2023-12-18T16:53:07.503Z,7.36
2023-12-18T16:55:35.032Z,7.31
2023-12-18T16:58:02.706Z,7.28
2023-12-18T17:00:30.372Z,7.23
2023-12-18T17:02:58.019Z,7.21
2023-12-18T17:05:25.689Z,7.20
2023-12-18T17:07:53.575Z,7.21
2023-12-18T17:10:21.112Z,7.24
2023-12-18T17:12:48.786Z,7.26
2023-12-18T17:15:16.486Z,7.29
2023-12-18T17:17:44.206Z,7.33
2023-12-18T17:20:11.804Z,7.38
2023-12-18T17:22:39.743Z,7.41
2023-12-18T17:25:07.389Z,7.42
2023-12-18T17:27:35.194Z,7.34
2023-12-18T17:30:02.814Z,7.24
2023-12-18T17:32:30.550Z,7.13
2023-12-18T17:34:58.483Z,7.01
2023-12-18T17:37:26.295Z,6.90
2023-12-18T17:39:54.078Z,6.78
2023-12-18T17:42:22.169Z,6.67
2023-12-18T17:44:49.693Z,6.59
2023-12-18T17:47:17.370Z,6.54
2023-12-18T17:49:45.022Z,6.54
2023-12-18T17:52:12.694Z,6.53
2023-12-18T17:54:40.284Z,6.51
2023-12-18T17:57:07.903Z,6.47
2023-12-18T17:59:35.466Z,6.43
2023-12-18T18:02:03.126Z,6.39
2023-12-18T18:04:31.243Z,6.36
2023-12-18T18:06:59.001Z,6.32
2023-12-18T18:09:26.680Z,6.30
2023-12-18T18:11:54.276Z,6.26
2023-12-18T18:14:21.947Z,6.23
2023-12-18T18:16:49.505Z,6.17
2023-12-18T18:19:17.277Z,6.10
2023-12-18T18:21:44.960Z,6.03
2023-12-18T18:24:12.931Z,5.96
2023-12-18T18:26:40.555Z,5.90
2023-12-18T18:29:08.115Z,5.86
2023-12-18T18:31:35.849Z,5.83
2023-12-18T18:34:03.756Z,5.80
2023-12-18T18:36:31.536Z,5.75
2023-12-18T18:38:59.183Z,5.70
2023-12-18T18:41:27.034Z,5.67
2023-12-18T18:43:55.117Z,5.64
2023-12-18T18:46:22.674Z,5.65
2023-12-18T18:48:50.401Z,5.66
2023-12-18T18:51:18.231Z,5.69
2023-12-18T18:53:45.965Z,5.70
2023-12-18T18:56:13.526Z,5.66
2023-12-18T18:58:41.190Z,5.63
2023-12-18T19:01:08.880Z,5.58
2023-12-18T19:03:36.814Z,5.53
2023-12-18T19:06:04.783Z,5.51
2023-12-18T19:08:32.554Z,5.52
2023-12-18T19:10:59.998Z,5.53
2023-12-18T19:13:27.559Z,5.55
2023-12-18T19:15:55.480Z,5.57
2023-12-18T19:18:23.426Z,5.64
2023-12-18T19:20:51.062Z,5.70
2023-12-18T19:23:18.713Z,5.75
2023-12-18T19:25:46.278Z,5.74
2023-12-18T19:28:13.878Z,5.70
2023-12-18T19:30:41.572Z,5.67
2023-12-18T19:33:09.391Z,5.67
2023-12-18T19:35:37.118Z,5.67
2023-12-18T19:38:04.693Z,5.67
2023-12-18T19:40:32.243Z,5.66
2023-12-18T19:42:59.863Z,5.63
2023-12-18T19:45:27.596Z,5.57
2023-12-18T19:47:55.589Z,5.51
2023-12-18T19:50:23.982Z,5.46
2023-12-18T19:52:51.685Z,5.42
2023-12-18T19:55:19.238Z,5.39
2023-12-18T19:57:46.905Z,5.38
2023-12-18T20:00:14.567Z,5.35
2023-12-18T20:02:42.609Z,5.30
2023-12-18T20:05:10.501Z,5.24
2023-12-18T20:07:38.203Z,5.21
2023-12-18T20:10:05.952Z,5.18
2023-12-18T20:12:33.650Z,5.14
2023-12-18T20:15:01.540Z,5.09
2023-12-18T20:17:29.267Z,5.01
2023-12-18T20:19:56.932Z,4.92
2023-12-18T20:22:24.598Z,4.84
2023-12-18T20:24:52.456Z,4.77
2023-12-18T20:27:20.237Z,4.70
2023-12-18T20:29:47.932Z,4.64
2023-12-18T20:32:15.495Z,4.59
2023-12-18T20:34:43.251Z,4.51
2023-12-18T20:37:11.004Z,4.44
2023-12-18T20:39:38.829Z,4.42
2023-12-18T20:42:06.467Z,4.43
2023-12-18T20:44:34.009Z,4.45
2023-12-18T20:47:01.660Z,4.45
2023-12-18T20:49:29.409Z,4.42
2023-12-18T20:51:57.622Z,4.34
2023-12-18T20:54:25.390Z,4.28
2023-12-18T20:56:53.031Z,4.22
2023-12-18T20:59:20.605Z,4.17
2023-12-18T21:01:48.441Z,4.13
2023-12-18T21:04:16.273Z,4.08
2023-12-18T21:06:43.998Z,4.04
2023-12-18T21:09:11.643Z,4.01
2023-12-18T21:11:39.410Z,3.98
2023-12-18T21:14:07.431Z,3.95
2023-12-18T21:16:35.256Z,3.88
2023-12-18T21:19:03.009Z,3.82
2023-12-18T21:21:30.930Z,3.77
2023-12-18T21:23:58.643Z,3.70
2023-12-18T21:26:26.296Z,3.71
2023-12-18T21:28:53.869Z,3.73
2023-12-18T21:31:21.833Z,3.76
2023-12-18T21:33:49.854Z,3.81
2023-12-18T21:36:17.677Z,3.89
2023-12-18T21:38:45.217Z,3.95
2023-12-18T21:41:12.781Z,3.96
2023-12-18T21:43:40.364Z,4.00
2023-12-18T21:46:08.041Z,4.06
2023-12-18T21:48:35.820Z,4.11
2023-12-18T21:51:03.445Z,4.04
2023-12-18T21:53:31.106Z,3.96
2023-12-18T21:55:58.651Z,3.94
2023-12-18T21:58:26.658Z,3.89
2023-12-18T22:00:54.350Z,3.84
2023-12-18T22:03:22.233Z,3.78
2023-12-18T22:05:50.147Z,3.71
2023-12-18T22:08:17.883Z,3.63
2023-12-18T22:10:45.544Z,3.54
2023-12-18T22:13:13.125Z,3.47
2023-12-18T22:15:40.695Z,3.37
2023-12-18T22:18:08.487Z,3.26
2023-12-18T22:20:36.490Z,3.17
2023-12-18T22:23:04.069Z,3.08
2023-12-18T22:25:31.714Z,3.01
2023-12-18T22:27:59.390Z,2.94
2023-12-18T22:30:27.121Z,2.88
2023-12-18T22:32:54.965Z,2.85
2023-12-18T22:35:22.565Z,2.84
2023-12-18T22:37:50.134Z,2.83
2023-12-18T22:40:17.989Z,2.87
2023-12-18T22:42:45.839Z,2.94
2023-12-18T22:45:13.787Z,3.04
2023-12-18T22:47:41.414Z,3.14
2023-12-18T22:50:09.128Z,3.19
2023-12-18T22:52:36.815Z,3.21
2023-12-18T22:55:04.520Z,3.22
2023-12-18T22:57:32.155Z,3.21
2023-12-18T22:59:59.795Z,3.16
2023-12-18T23:02:27.355Z,3.09
2023-12-18T23:04:55.127Z,3.03
2023-12-18T23:07:22.783Z,2.97
2023-12-18T23:09:50.457Z,2.87
2023-12-18T23:12:18.110Z,2.76
2023-12-18T23:14:45.666Z,2.72
2023-12-18T23:17:13.225Z,2.71
2023-12-18T23:19:40.840Z,2.68
2023-12-18T23:22:08.692Z,2.68
2023-12-18T23:27:17.610Z,2.73
2023-12-18T23:29:45.148Z,2.72
2023-12-18T23:32:12.806Z,2.68
2023-12-18T23:34:40.552Z,2.61
2023-12-18T23:37:08.743Z,2.59
2023-12-18T23:39:36.419Z,2.56
2023-12-18T23:42:04.064Z,2.51
2023-12-18T23:44:31.646Z,2.46
2023-12-18T23:46:59.294Z,2.40
2023-12-18T23:49:26.936Z,2.35
2023-12-18T23:51:54.836Z,2.31
2023-12-18T23:54:22.641Z,2.29
2023-12-18T23:56:50.352Z,2.30
2023-12-18T23:59:18.318Z,2.30
